createdAt,value
2019-04-21T00:00:57.092Z,17.00
2019-04-21T00:03:30.270Z,17.00
2019-04-21T00:06:08.848Z,17.00
2019-04-21T00:08:41.511Z,17.00
2019-04-21T00:11:18.643Z,17.00
2019-04-21T00:13:38.216Z,17.00
2019-04-21T00:15:57.867Z,17.00
2019-04-21T00:18:53.447Z,16.90
2019-04-21T00:21:24.392Z,16.80
2019-04-21T00:24:01.284Z,16.80
2019-04-21T00:26:35.200Z,16.70
2019-04-21T00:29:09.147Z,16.70
2019-04-21T00:31:29.910Z,16.70
2019-04-21T00:33:46.681Z,16.70
2019-04-21T00:36:21.985Z,16.60
2019-04-21T00:39:14.626Z,16.60
2019-04-21T00:41:40.194Z,16.60
2019-04-21T00:44:02.079Z,16.70
2019-04-21T00:46:31.240Z,16.70
2019-04-21T00:49:03.181Z,16.60
2019-04-21T00:51:49.881Z,16.60
2019-04-21T00:54:21.267Z,16.60
2019-04-21T00:56:49.945Z,16.60
2019-04-21T00:59:13.857Z,16.50
2019-04-21T01:01:46.277Z,16.50
2019-04-21T01:04:16.899Z,16.40
2019-04-21T01:06:49.145Z,16.40
2019-04-21T01:09:13.574Z,16.30
2019-04-21T01:11:49.519Z,16.30
2019-04-21T01:14:22.239Z,16.30
2019-04-21T01:16:47.363Z,16.30
2019-04-21T01:19:10.752Z,16.30
2019-04-21T01:21:24.858Z,16.20
2019-04-21T01:23:55.636Z,16.10
2019-04-21T01:26:37.196Z,16.10
2019-04-21T01:29:22.766Z,16.00
2019-04-21T01:31:48.444Z,16.00
2019-04-21T01:34:23.375Z,15.90
2019-04-21T01:36:51.401Z,15.90
2019-04-21T01:39:27.467Z,15.80
2019-04-21T01:41:57.327Z,15.80
2019-04-21T01:44:29.821Z,15.80
2019-04-21T01:46:54.529Z,15.70
2019-04-21T01:49:20.162Z,15.70
2019-04-21T01:52:10.770Z,15.70
2019-04-21T01:54:40.665Z,15.70
2019-04-21T01:57:47.467Z,15.60
2019-04-21T02:00:12.989Z,15.60
2019-04-21T02:02:54.594Z,15.60
2019-04-21T02:05:26.404Z,15.50
2019-04-21T02:08:12.405Z,15.50
2019-04-21T02:10:47.682Z,15.40
2019-04-21T02:13:14.398Z,15.40
2019-04-21T02:16:08.453Z,15.30
2019-04-21T02:18:27.597Z,15.30
2019-04-21T02:20:53.452Z,15.30
2019-04-21T02:23:41.183Z,15.30
2019-04-21T02:26:08.075Z,15.20
2019-04-21T02:28:42.425Z,15.20
2019-04-21T02:31:20.929Z,15.20
2019-04-21T02:33:56.262Z,15.10
2019-04-21T02:41:43.682Z,15.00
2019-04-21T02:47:00.540Z,15.00
2019-04-21T02:52:14.284Z,14.90
2019-04-21T02:54:49.145Z,14.90
2019-04-21T02:57:10.474Z,14.80
2019-04-21T02:59:42.278Z,14.90
2019-04-21T03:02:17.013Z,14.90
2019-04-21T03:07:19.231Z,14.80
2019-04-21T03:09:44.470Z,14.80
2019-04-21T03:19:50.523Z,14.70
2019-04-21T03:22:20.105Z,14.70
2019-04-21T03:27:35.225Z,14.50
2019-04-21T03:29:55.191Z,14.50
2019-04-21T03:32:51.350Z,14.50
2019-04-21T03:40:07.546Z,14.30
2019-04-21T03:50:05.220Z,14.20
2019-04-21T03:55:44.742Z,14.20
2019-04-21T04:00:36.657Z,14.10
2019-04-21T04:03:07.609Z,14.10
2019-04-21T04:05:49.538Z,14.00
2019-04-21T04:08:44.437Z,14.00
2019-04-21T04:11:19.561Z,13.90
2019-04-21T04:13:39.703Z,13.90
2019-04-21T04:18:48.890Z,13.80
2019-04-21T04:31:06.840Z,13.60
2019-04-21T04:33:55.519Z,13.50
2019-04-21T04:39:22.554Z,13.40
2019-04-21T04:41:45.568Z,13.40
2019-04-21T04:44:12.358Z,13.30
2019-04-21T04:46:44.241Z,13.30
2019-04-21T04:49:27.867Z,13.30
2019-04-21T04:52:07.770Z,13.30
2019-04-21T04:54:17.503Z,13.30
2019-04-21T04:56:38.848Z,13.40
2019-04-21T04:59:32.454Z,13.40
2019-04-21T05:02:00.214Z,13.50
2019-04-21T05:04:39.754Z,13.50
2019-04-21T05:07:06.691Z,13.50
2019-04-21T05:09:37.100Z,13.50
2019-04-21T05:11:55.715Z,13.50
2019-04-21T05:14:30.385Z,13.50
2019-04-21T05:17:21.589Z,13.50
2019-04-21T05:22:03.183Z,13.60
2019-04-21T05:24:38.571Z,13.60
2019-04-21T05:27:08.598Z,13.60
2019-04-21T05:29:53.929Z,13.60
2019-04-21T05:32:17.043Z,13.60
2019-04-21T05:34:55.971Z,13.60
2019-04-21T05:37:35.170Z,13.60
2019-04-21T05:40:00.602Z,13.60
2019-04-21T05:42:36.411Z,13.70
2019-04-21T05:45:17.439Z,13.70
2019-04-21T05:47:57.930Z,13.70
2019-04-21T05:50:16.706Z,13.70
2019-04-21T05:52:47.442Z,13.70
2019-04-21T05:55:34.077Z,13.70
2019-04-21T05:57:54.287Z,13.70
2019-04-21T06:00:46.733Z,13.70
2019-04-21T06:03:00.560Z,13.70
2019-04-21T06:05:39.182Z,13.80
2019-04-21T06:08:02.465Z,13.80
2019-04-21T06:10:34.657Z,13.90
2019-04-21T06:13:05.797Z,13.90
2019-04-21T06:15:39.523Z,14.00
2019-04-21T06:18:05.111Z,14.00
2019-04-21T06:20:40.716Z,14.10
2019-04-21T06:23:30.216Z,14.10
2019-04-21T06:26:27.055Z,14.20
2019-04-21T06:28:37.535Z,14.20
2019-04-21T06:31:08.134Z,14.30
2019-04-21T06:33:45.957Z,14.30
2019-04-21T06:39:04.643Z,14.40
2019-04-21T06:41:31.538Z,14.50
2019-04-21T06:44:04.147Z,14.60
2019-04-21T06:49:01.274Z,14.70
2019-04-21T06:56:38.122Z,14.90
2019-04-21T06:58:58.004Z,15.00
2019-04-21T07:01:49.579Z,15.10
2019-04-21T07:04:25.380Z,15.10
2019-04-21T07:06:52.120Z,15.10
2019-04-21T07:09:36.434Z,15.20
2019-04-21T07:12:10.086Z,15.30
2019-04-21T07:14:43.818Z,15.40
2019-04-21T07:17:15.860Z,15.50
2019-04-21T07:19:40.935Z,15.60
2019-04-21T07:22:12.631Z,15.70
2019-04-21T07:24:41.964Z,15.80
2019-04-21T07:27:11.754Z,15.80
2019-04-21T07:29:45.351Z,16.00
2019-04-21T07:32:10.442Z,16.00
2019-04-21T07:34:38.498Z,16.10
2019-04-21T07:37:05.948Z,16.20
2019-04-21T07:39:35.760Z,16.30
2019-04-21T07:42:04.601Z,16.40
2019-04-21T07:44:37.954Z,16.50
2019-04-21T07:47:11.804Z,16.60
2019-04-21T07:49:53.757Z,16.80
2019-04-21T07:52:34.910Z,16.90
2019-04-21T07:55:12.905Z,17.00
2019-04-21T07:57:31.393Z,17.10
2019-04-21T08:00:16.115Z,17.30
2019-04-21T08:02:57.201Z,17.50
2019-04-21T08:05:37.643Z,17.60
2019-04-21T08:08:23.223Z,17.90
2019-04-21T08:10:23.001Z,18.10
2019-04-21T08:12:47.557Z,18.40
2019-04-21T08:15:27.569Z,18.60
2019-04-21T08:17:53.729Z,18.70
2019-04-21T08:20:25.503Z,18.70
2019-04-21T08:25:27.699Z,18.70
2019-04-21T08:30:32.216Z,18.80
2019-04-21T08:35:55.332Z,18.90
2019-04-21T08:37:57.018Z,19.00
2019-04-21T08:40:31.547Z,19.10
2019-04-21T08:42:57.130Z,19.30
2019-04-21T08:45:40.457Z,19.30
2019-04-21T08:48:00.865Z,19.50
2019-04-21T08:50:47.611Z,19.60
2019-04-21T08:52:59.844Z,19.70
2019-04-21T08:55:33.643Z,19.90
2019-04-21T09:00:58.998Z,20.30
2019-04-21T09:03:32.969Z,20.50
2019-04-21T09:05:59.912Z,20.60
2019-04-21T09:08:29.283Z,20.70
2019-04-21T09:10:54.829Z,20.80
2019-04-21T09:13:24.787Z,20.80
2019-04-21T09:16:09.746Z,20.90
2019-04-21T09:18:42.048Z,21.00
2019-04-21T09:21:23.158Z,21.10
2019-04-21T09:23:44.975Z,21.10
2019-04-21T09:26:20.083Z,21.20
2019-04-21T09:28:42.375Z,21.20
2019-04-21T09:31:00.879Z,21.30
2019-04-21T09:33:34.504Z,21.40
2019-04-21T09:36:02.606Z,21.50
2019-04-21T09:38:36.255Z,21.60
2019-04-21T09:40:59.726Z,21.70
2019-04-21T09:43:36.480Z,21.80
2019-04-21T09:45:58.913Z,21.90
2019-04-21T09:48:30.652Z,22.00
2019-04-21T09:50:57.806Z,22.00
2019-04-21T09:53:33.030Z,22.10
2019-04-21T09:56:01.349Z,22.20
2019-04-21T09:58:34.758Z,22.30
2019-04-21T10:01:09.776Z,22.50
2019-04-21T10:03:39.648Z,22.60
2019-04-21T10:05:58.667Z,22.60
2019-04-21T10:08:27.309Z,22.70
2019-04-21T10:10:56.979Z,22.80
2019-04-21T10:13:25.569Z,22.80
2019-04-21T10:15:59.274Z,23.00
2019-04-21T10:18:27.712Z,23.00
2019-04-21T10:20:57.008Z,23.00
2019-04-21T10:23:25.580Z,23.10
2019-04-21T10:25:54.701Z,23.20
2019-04-21T10:28:23.390Z,23.20
2019-04-21T10:30:52.877Z,23.30
2019-04-21T10:33:22.045Z,23.30
2019-04-21T10:35:50.920Z,23.40
2019-04-21T10:38:29.225Z,23.40
2019-04-21T10:40:49.812Z,23.50
2019-04-21T10:43:21.866Z,23.50
2019-04-21T10:45:48.857Z,23.50
2019-04-21T10:48:18.825Z,23.60
2019-04-21T10:50:47.479Z,23.60
2019-04-21T10:53:20.836Z,23.80
2019-04-21T10:56:06.124Z,23.90
2019-04-21T10:58:28.473Z,23.80
2019-04-21T11:01:00.032Z,23.70
2019-04-21T11:03:40.469Z,23.70
2019-04-21T11:06:10.862Z,23.90
2019-04-21T11:08:44.124Z,24.00
2019-04-21T11:11:10.019Z,24.00
2019-04-21T11:13:38.914Z,24.20
2019-04-21T11:16:08.742Z,24.20
2019-04-21T11:18:37.801Z,24.30
2019-04-21T11:21:06.999Z,24.30
2019-04-21T11:23:35.723Z,24.30
2019-04-21T11:26:04.460Z,24.30
2019-04-21T11:28:34.509Z,24.40
2019-04-21T11:31:04.717Z,24.40
2019-04-21T11:33:33.462Z,24.60
2019-04-21T11:36:02.357Z,24.80
2019-04-21T11:38:44.689Z,24.90
2019-04-21T11:41:03.834Z,25.00
2019-04-21T11:43:32.900Z,25.00
2019-04-21T11:46:02.562Z,25.00
2019-04-21T11:48:32.381Z,25.20
2019-04-21T11:51:01.314Z,25.30
2019-04-21T11:53:30.758Z,25.40
2019-04-21T11:56:00.642Z,25.50
2019-04-21T11:58:29.870Z,25.40
2019-04-21T12:01:00.265Z,25.60
2019-04-21T12:03:29.512Z,25.70
2019-04-21T12:05:59.414Z,25.80
2019-04-21T12:08:49.952Z,25.80
2019-04-21T12:11:17.863Z,26.00
2019-04-21T12:13:54.261Z,26.10
2019-04-21T12:16:23.394Z,25.90
2019-04-21T12:18:52.420Z,26.20
2019-04-21T12:21:21.213Z,26.30
2019-04-21T12:23:50.249Z,26.60
2019-04-21T12:26:20.011Z,26.70
2019-04-21T12:28:50.032Z,26.50
2019-04-21T12:31:57.110Z,26.60
2019-04-21T12:34:26.032Z,26.80
2019-04-21T12:36:54.966Z,26.90
2019-04-21T12:39:24.970Z,27.10
2019-04-21T12:41:54.293Z,27.10
2019-04-21T12:44:22.824Z,27.20
2019-04-21T12:46:51.939Z,27.30
2019-04-21T12:49:20.496Z,27.40
2019-04-21T12:51:49.008Z,27.40
2019-04-21T12:54:17.621Z,27.70
2019-04-21T12:56:47.549Z,27.80
2019-04-21T12:59:16.959Z,27.90
2019-04-21T13:01:45.729Z,28.10
2019-04-21T13:04:15.342Z,28.40
2019-04-21T13:06:45.600Z,28.40
2019-04-21T13:09:17.967Z,28.50
2019-04-21T13:11:44.576Z,28.80
2019-04-21T13:14:13.717Z,29.00
2019-04-21T13:16:43.403Z,29.20
2019-04-21T13:19:13.117Z,29.50
2019-04-21T13:21:42.374Z,29.90
2019-04-21T13:24:11.678Z,30.10
2019-04-21T13:26:48.730Z,30.20
2019-04-21T13:29:10.528Z,30.30
2019-04-21T13:31:40.096Z,30.60
2019-04-21T13:34:10.338Z,30.60
2019-04-21T13:36:39.265Z,30.70
2019-04-21T13:39:53.738Z,30.70
2019-04-21T13:42:24.003Z,31.00
2019-04-21T13:44:44.586Z,31.10
2019-04-21T13:47:14.443Z,31.40
2019-04-21T13:49:43.427Z,31.40
2019-04-21T13:52:13.000Z,31.90
2019-04-21T13:54:41.557Z,32.20
2019-04-21T13:57:10.500Z,32.60
2019-04-21T13:59:40.237Z,32.70
2019-04-21T14:02:09.013Z,32.80
2019-04-21T14:04:37.889Z,32.60
2019-04-21T14:07:08.086Z,32.70
2019-04-21T14:09:45.852Z,32.70
2019-04-21T14:12:07.661Z,32.80
2019-04-21T14:14:36.618Z,32.90
2019-04-21T14:17:06.825Z,32.80
2019-04-21T14:19:35.556Z,31.50
2019-04-21T14:22:05.635Z,30.70
2019-04-21T14:24:35.041Z,30.10
2019-04-21T14:27:03.802Z,29.40
2019-04-21T14:29:33.480Z,28.80
2019-04-21T14:32:02.158Z,28.50
2019-04-21T14:34:32.042Z,28.20
2019-04-21T14:37:00.767Z,27.90
2019-04-21T14:39:57.825Z,27.60
2019-04-21T14:42:20.155Z,27.40
2019-04-21T14:44:49.118Z,27.20
2019-04-21T14:47:35.034Z,27.00
2019-04-21T14:50:18.268Z,26.90
2019-04-21T14:52:48.575Z,26.80
2019-04-21T14:55:24.931Z,26.80
2019-04-21T14:57:54.815Z,26.70
2019-04-21T15:00:27.127Z,26.70
2019-04-21T15:02:55.947Z,26.50
2019-04-21T15:05:31.322Z,26.40
2019-04-21T15:08:01.356Z,26.30
2019-04-21T15:10:32.239Z,26.20
2019-04-21T15:13:01.574Z,26.20
2019-04-21T15:15:30.148Z,26.30
2019-04-21T15:17:59.782Z,26.20
2019-04-21T15:20:28.681Z,26.10
2019-04-21T15:22:57.351Z,26.10
2019-04-21T15:25:26.071Z,26.10
2019-04-21T15:27:54.980Z,26.20
2019-04-21T15:30:24.696Z,26.10
2019-04-21T15:32:54.623Z,26.10
2019-04-21T15:35:23.252Z,26.10
2019-04-21T15:37:51.866Z,26.10
2019-04-21T15:40:30.244Z,26.00
2019-04-21T15:42:50.925Z,26.00
2019-04-21T15:45:20.998Z,25.80
2019-04-21T15:47:49.995Z,25.80
2019-04-21T15:50:20.130Z,25.80
2019-04-21T15:52:57.940Z,25.70
2019-04-21T15:55:48.725Z,25.70
2019-04-21T15:58:21.096Z,25.70
2019-04-21T16:01:10.277Z,25.70
2019-04-21T16:03:38.911Z,25.60
2019-04-21T16:06:07.613Z,25.60
2019-04-21T16:08:58.970Z,25.50
2019-04-21T16:11:26.026Z,25.50
2019-04-21T16:13:55.600Z,25.50
2019-04-21T16:16:26.799Z,25.60
2019-04-21T16:18:54.377Z,25.60
2019-04-21T16:21:24.218Z,25.60
2019-04-21T16:23:54.125Z,25.50
2019-04-21T16:26:22.751Z,25.50
2019-04-21T16:28:51.265Z,25.50
2019-04-21T16:31:20.391Z,25.40
2019-04-21T16:33:49.246Z,25.20
2019-04-21T16:36:18.472Z,25.20
2019-04-21T16:38:49.372Z,25.20
2019-04-21T16:41:18.274Z,25.10
2019-04-21T16:43:47.094Z,25.20
2019-04-21T16:46:15.952Z,25.10
2019-04-21T16:48:44.402Z,25.00
2019-04-21T16:51:32.192Z,25.00
2019-04-21T16:54:02.298Z,25.00
2019-04-21T16:56:52.114Z,25.00
2019-04-21T16:59:22.461Z,25.00
2019-04-21T17:01:52.357Z,25.00
2019-04-21T17:04:22.216Z,25.00
2019-04-21T17:06:51.250Z,25.00
2019-04-21T17:09:20.914Z,25.00
2019-04-21T17:11:57.440Z,24.90
2019-04-21T17:14:39.970Z,24.80
2019-04-21T17:17:15.273Z,24.70
2019-04-21T17:19:27.816Z,24.70
2019-04-21T17:21:52.161Z,24.60
2019-04-21T17:24:22.115Z,24.60
2019-04-21T17:26:51.406Z,24.50
2019-04-21T17:29:20.872Z,24.50
2019-04-21T17:31:49.828Z,24.50
2019-04-21T17:34:22.975Z,24.30
2019-04-21T17:36:48.782Z,24.30
2019-04-21T17:39:18.685Z,24.20
2019-04-21T17:41:58.219Z,24.20
2019-04-21T17:44:37.342Z,24.10
2019-04-21T17:47:21.392Z,24.10
2019-04-21T17:49:37.157Z,24.00
2019-04-21T17:52:24.765Z,24.00
2019-04-21T17:55:06.303Z,23.90
2019-04-21T17:57:48.479Z,23.90
2019-04-21T18:00:24.029Z,23.90
2019-04-21T18:02:51.503Z,23.80
2019-04-21T18:05:21.334Z,23.70
2019-04-21T18:07:46.733Z,23.60
2019-04-21T18:10:19.173Z,23.60
2019-04-21T18:12:41.398Z,23.50
2019-04-21T18:15:19.294Z,23.40
2019-04-21T18:17:30.629Z,23.30
2019-04-21T18:19:59.725Z,23.30
2019-04-21T18:22:34.731Z,23.20
2019-04-21T18:25:06.662Z,23.10
2019-04-21T18:27:32.386Z,23.10
2019-04-21T18:30:04.591Z,23.00
2019-04-21T18:32:37.576Z,23.00
2019-04-21T18:35:09.810Z,22.90
2019-04-21T18:37:45.802Z,22.80
2019-04-21T18:40:20.507Z,22.70
2019-04-21T18:43:32.637Z,22.60
2019-04-21T18:45:54.946Z,22.50
2019-04-21T18:48:31.551Z,22.40
2019-04-21T18:51:04.699Z,22.30
2019-04-21T18:53:44.773Z,22.20
2019-04-21T18:56:05.359Z,22.10
2019-04-21T18:58:30.833Z,22.00
2019-04-21T19:01:07.535Z,22.00
2019-04-21T19:03:38.867Z,21.90
2019-04-21T19:06:08.141Z,21.90
2019-04-21T19:08:53.746Z,21.90
2019-04-21T19:11:19.587Z,21.90
2019-04-21T19:16:43.166Z,21.80
2019-04-21T19:21:33.458Z,21.80
2019-04-21T19:24:17.969Z,21.70
2019-04-21T19:26:46.563Z,21.70
2019-04-21T19:29:11.270Z,21.60
2019-04-21T19:31:41.638Z,21.50
2019-04-21T19:33:58.208Z,21.40
2019-04-21T19:36:25.477Z,21.40
2019-04-21T19:39:06.286Z,21.30
2019-04-21T19:41:38.862Z,21.20
2019-04-21T19:44:14.692Z,21.10
2019-04-21T19:46:38.239Z,21.10
2019-04-21T19:49:21.149Z,21.10
2019-04-21T19:51:36.517Z,21.00
2019-04-21T19:54:03.792Z,21.00
2019-04-21T19:56:25.927Z,20.90
2019-04-21T19:58:54.996Z,20.90
2019-04-21T20:01:23.656Z,20.80
2019-04-21T20:03:56.174Z,20.80
2019-04-21T20:06:39.026Z,20.70
2019-04-21T20:09:08.375Z,20.70
2019-04-21T20:11:38.235Z,20.60
2019-04-21T20:16:45.292Z,20.50
2019-04-21T20:19:05.007Z,20.40
2019-04-21T20:21:33.074Z,20.40
2019-04-21T20:24:07.633Z,20.30
2019-04-21T20:26:39.090Z,20.20
2019-04-21T20:29:14.007Z,20.20
2019-04-21T20:31:48.675Z,20.10
2019-04-21T20:34:26.876Z,20.00
2019-04-21T20:36:56.853Z,19.90
2019-04-21T20:39:09.292Z,19.80
2019-04-21T20:41:45.777Z,19.70
2019-04-21T20:44:18.395Z,19.70
2019-04-21T20:46:51.597Z,19.50
2019-04-21T20:49:15.882Z,19.50
2019-04-21T20:52:01.199Z,19.50
2019-04-21T20:54:24.296Z,19.40
2019-04-21T20:56:51.214Z,19.40
2019-04-21T20:59:19.390Z,19.40
2019-04-21T21:02:16.608Z,19.30
2019-04-21T21:04:34.942Z,19.40
2019-04-21T21:07:25.513Z,19.40
2019-04-21T21:09:41.350Z,19.40
2019-04-21T21:12:22.278Z,19.40
2019-04-21T21:14:42.182Z,19.30
2019-04-21T21:17:25.369Z,19.30
2019-04-21T21:19:47.222Z,19.20
2019-04-21T21:22:08.274Z,19.10
2019-04-21T21:24:49.386Z,19.00
2019-04-21T21:27:14.241Z,18.90
2019-04-21T21:29:45.324Z,18.90
2019-04-21T21:34:47.504Z,18.70
2019-04-21T21:37:21.684Z,18.70
2019-04-21T21:39:55.203Z,18.60
2019-04-21T21:42:01.981Z,18.50
2019-04-21T21:44:29.962Z,18.50
2019-04-21T21:47:11.983Z,18.40
2019-04-21T21:49:46.771Z,18.40
2019-04-21T21:52:11.576Z,18.20
2019-04-21T21:54:29.608Z,18.20
2019-04-21T21:56:58.682Z,18.10
2019-04-21T21:59:31.095Z,18.10
2019-04-21T22:01:58.325Z,18.10
2019-04-21T22:04:30.718Z,18.10
2019-04-21T22:07:04.407Z,18.00
2019-04-21T22:09:30.285Z,18.00
2019-04-21T22:12:04.386Z,18.00
2019-04-21T22:14:37.508Z,18.10
2019-04-21T22:17:20.754Z,18.10
2019-04-21T22:19:51.227Z,18.10
2019-04-21T22:22:15.834Z,18.20
2019-04-21T22:24:48.123Z,18.20
2019-04-21T22:27:01.178Z,18.10
2019-04-21T22:29:38.094Z,18.10
2019-04-21T22:32:13.878Z,18.10
2019-04-21T22:34:47.737Z,18.10
2019-04-21T22:37:26.003Z,18.10
2019-04-21T22:39:53.038Z,18.10
2019-04-21T22:42:18.967Z,18.10
2019-04-21T22:44:40.623Z,18.10
2019-04-21T22:47:17.521Z,18.10
2019-04-21T22:49:40.870Z,18.00
2019-04-21T22:52:15.196Z,18.00
2019-04-21T22:54:43.091Z,18.00
2019-04-21T22:57:15.982Z,18.00
2019-04-21T22:59:40.577Z,18.10
2019-04-21T23:02:17.682Z,18.10
2019-04-21T23:04:45.524Z,18.00
2019-04-21T23:07:13.509Z,18.00
2019-04-21T23:09:40.418Z,18.00
2019-04-21T23:12:12.417Z,18.00
2019-04-21T23:14:47.394Z,17.90
2019-04-21T23:17:50.780Z,17.90
2019-04-21T23:20:31.583Z,17.90
2019-04-21T23:23:05.162Z,17.80
2019-04-21T23:25:35.075Z,17.80
2019-04-21T23:27:57.390Z,17.70
2019-04-21T23:30:43.618Z,17.70
2019-04-21T23:32:52.662Z,17.60
2019-04-21T23:35:21.807Z,17.60
2019-04-21T23:37:50.961Z,17.50
2019-04-21T23:40:19.895Z,17.50
2019-04-21T23:42:45.531Z,17.50
2019-04-21T23:45:18.305Z,17.40
2019-04-21T23:47:57.745Z,17.40
2019-04-21T23:50:29.480Z,17.40
2019-04-21T23:52:47.796Z,17.40
2019-04-21T23:55:37.007Z,17.30
2019-04-21T23:58:11.044Z,17.30
